Jordan, MN

3:59 PM CST on December 25, 2014 (GMT -0600)
Carver Bluffs | Change Station
CLOSE
Current Station
Personal Weather Station
Location: Carver, MN
Elevation: 860 ft
Nearby Weather Stations

Elev 860 ft 44.74 °N, 93.65 °W | Updated 6 seconds ago

Overcast
Overcast
36.0 °F
Feels Like 36 °F
N
0.0
Wind Variable Wind from North
Gusts 0.0 mph

Today
High -- | Low -- °F
--% Chance of Precip.
Yesterday
High -- | Low -- °F
Precip. -- in
7:50 AM 4:39 PM
Waxing Crescent, 19% visible
Pressure 29.79 in
Visibility 10.0 miles
Clouds Few 1500 ft
Scattered Clouds 4400 ft
Mostly Cloudy 11000 ft
Windchill 36 °F
Dew Point 31 °F
Humidity 82%
Rainfall 0.00 in
Snow Depth Not available.
UV 0 out of 12
Pollen .10 out of 12
Air Quality Not available.
Flu Activity Not available.
METAR KFCM 252153Z 00000KT 10SM FEW015 SCT044 BKN110 02/M02 A2976 RMK AO2 SLP087 T00171017

More Conditions Fewer Conditions

Pressure 29.79 in
Visibility 10.0 miles
Clouds Few 1500 ft
Scattered Clouds 4400 ft
Mostly Cloudy 11000 ft
Windchill 36 °F
Dew Point 31 °F
Humidity 82%
Rainfall 0.00 in
Snow Depth Not available.
UV 0 out of 12
Pollen .10 out of 12
Air Quality Not available.
Flu Activity Not available.
METAR KFCM 252153Z 00000KT 10SM FEW015 SCT044 BKN110 02/M02 A2976 RMK AO2 SLP087 T00171017

More Conditions Fewer Conditions

10-Day Weather Forecast

Almanac

Astronomy

Dec. 25, 2014 Rise Set
Actual Time
Civil Twilight
Nautical Twilight
Astronomical Twilight
Moon
Length of Visible Light
Length of Day
Tomorrow will be .
, % of the Moon is Illuminated

Today's Extremes

State Highs State Lows

Community

WunderPhotos

Upload Photos

1,780,405 photos uploaded!

WunderBlogs® & News

Nearby

Air Quality

  Air Quality AQ Index Pollutant
Not available.

Snow Depth

Station Depth Elevation

Earthquake Activity

City Distance Mag. Time & Date
Minimum magnitude displayed is 2.5.

Coastal Water Temperatures

Place Temperature

Nearby Weather Stations